الصفحة الرئيسية
METAR-TAF:

METAR-TAF

مطار :

جدة, السعودية

مطار الملك عبد العزيز الدولي

دائرة عرض: 21-42N, خط طول: 039-11E, ارتفاع: 15 متر

مراقبة الطقس الحالي

تاريخ ووقت الإصدار 42 دقيقة قبل الساعة 03:00UTC
ريح 4 عقدة من الشمال الشرقي
درجة الحرارة 20°درجة مئوية
الرطوبة 64%
ضغط 1013 hPa
الرؤية 10 كم أو أكثر
الغيوم لا تقل 1500 م ولا وجود لمزنة ركامية السحاب الأسود

METAR: OEJN 190300Z 04004KT CAVOK 20/13 Q1013 NOSIG

زمن: 06:42 (03:42 UTC)

توقعات

تاريخ ووقت الإصدار 4ساعات و 42 دقيقة قبل الساعة 23:00UTC
التوقعات صالحة من19 الساعة 00 UTC إلى 20 الساعة 06 UTC
ريح 6 عقدة من الشمال الشرقي
الرؤية: 7000 متر
أصبح
من 19 الساعة 06 UTC إلى 19 الساعة 08 UTC
ريح 8 عقدة من الشمال/الشمال الغربي تتزايد حتى 18 عقدة

TAF: OEJN 182300Z 1900/2006 05006KT 7000 NSC BECMG 1906/1908 33008G18KT

أرصاد الطقس والتوقعات من أكثر من 4000 مطار (تقارير الطقس للمطار METAR والتنبؤ بالطقس بالمطارTAF).

المحطات المتاحة هي النقط الصفراء والحمراء على الخريطة.

حرك المؤشر فوق النقطة لمعرفة اسم المحطة.

ثم انقر لمعرفة أرصاد وتوقعات الطقس.

لتغيير الخارطة: اضغط على الأزرار الخضراء مع رمز الصليب الأسود للتكبير. على الزر الأخضر مع شرطة للتصغير، أو على الأسهم الخضراء للخرائط المجاورة.


METAR-TAF: